sensor_id;sensor_type;location;lat;lon;timestamp;P1;durP1;ratioP1;P2;durP2;ratioP2
39842;SDS011;25514;46.764;15.406;2022-07-30T00:02:16;5.18;;;4.25;;
39842;SDS011;25514;46.764;15.406;2022-07-30T00:04:43;5.45;;;4.95;;
39842;SDS011;25514;46.764;15.406;2022-07-30T00:07:09;5.15;;;4.32;;
39842;SDS011;25514;46.764;15.406;2022-07-30T00:09:35;4.88;;;4.30;;
39842;SDS011;25514;46.764;15.406;2022-07-30T00:12:00;5.18;;;3.80;;
39842;SDS011;25514;46.764;15.406;2022-07-30T00:14:26;4.53;;;4.13;;
39842;SDS011;25514;46.764;15.406;2022-07-30T00:16:52;5.00;;;4.53;;
39842;SDS011;25514;46.764;15.406;2022-07-30T00:19:18;5.20;;;4.43;;
39842;SDS011;25514;46.764;15.406;2022-07-30T00:21:44;7.40;;;4.07;;
39842;SDS011;25514;46.764;15.406;2022-07-30T00:24:09;5.32;;;3.53;;
39842;SDS011;25514;46.764;15.406;2022-07-30T00:26:35;5.28;;;4.00;;
39842;SDS011;25514;46.764;15.406;2022-07-30T00:29:00;7.28;;;4.20;;
39842;SDS011;25514;46.764;15.406;2022-07-30T00:31:26;4.95;;;3.95;;
39842;SDS011;25514;46.764;15.406;2022-07-30T00:33:51;5.47;;;3.42;;
39842;SDS011;25514;46.764;15.406;2022-07-30T00:36:17;6.75;;;3.72;;
39842;SDS011;25514;46.764;15.406;2022-07-30T00:38:42;5.18;;;3.50;;
39842;SDS011;25514;46.764;15.406;2022-07-30T00:41:08;7.78;;;3.80;;
39842;SDS011;25514;46.764;15.406;2022-07-30T00:43:33;3.70;;;3.13;;
39842;SDS011;25514;46.764;15.406;2022-07-30T00:45:59;3.63;;;3.30;;
39842;SDS011;25514;46.764;15.406;2022-07-30T00:48:24;4.75;;;2.83;;
39842;SDS011;25514;46.764;15.406;2022-07-30T00:50:50;9.55;;;3.42;;
39842;SDS011;25514;46.764;15.406;2022-07-30T00:53:16;5.43;;;3.25;;
39842;SDS011;25514;46.764;15.406;2022-07-30T00:55:41;5.57;;;2.83;;
39842;SDS011;25514;46.764;15.406;2022-07-30T00:58:07;5.57;;;3.00;;
39842;SDS011;25514;46.764;15.406;2022-07-30T01:00:32;5.45;;;3.33;;
39842;SDS011;25514;46.764;15.406;2022-07-30T01:02:57;3.75;;;2.75;;
39842;SDS011;25514;46.764;15.406;2022-07-30T01:05:23;5.80;;;2.95;;
39842;SDS011;25514;46.764;15.406;2022-07-30T01:07:48;5.88;;;3.53;;
39842;SDS011;25514;46.764;15.406;2022-07-30T01:10:15;3.95;;;3.40;;
39842;SDS011;25514;46.764;15.406;2022-07-30T01:12:41;5.75;;;3.22;;
39842;SDS011;25514;46.764;15.406;2022-07-30T01:15:08;4.97;;;3.30;;
39842;SDS011;25514;46.764;15.406;2022-07-30T01:17:35;5.05;;;3.40;;
39842;SDS011;25514;46.764;15.406;2022-07-30T01:20:06;3.45;;;3.15;;
39842;SDS011;25514;46.764;15.406;2022-07-30T01:30:34;4.88;;;4.18;;
39842;SDS011;25514;46.764;15.406;2022-07-30T01:33:03;6.82;;;3.60;;
39842;SDS011;25514;46.764;15.406;2022-07-30T01:35:32;3.10;;;2.83;;
39842;SDS011;25514;46.764;15.406;2022-07-30T01:37:59;4.75;;;4.25;;
39842;SDS011;25514;46.764;15.406;2022-07-30T01:40:27;6.28;;;4.32;;
39842;SDS011;25514;46.764;15.406;2022-07-30T01:42:53;5.00;;;3.75;;
39842;SDS011;25514;46.764;15.406;2022-07-30T01:45:24;6.68;;;4.30;;
39842;SDS011;25514;46.764;15.406;2022-07-30T01:47:51;5.15;;;3.95;;
39842;SDS011;25514;46.764;15.406;2022-07-30T01:50:18;5.95;;;4.35;;
39842;SDS011;25514;46.764;15.406;2022-07-30T01:52:46;5.95;;;3.80;;
39842;SDS011;25514;46.764;15.406;2022-07-30T01:55:15;7.15;;;4.13;;
39842;SDS011;25514;46.764;15.406;2022-07-30T01:57:42;5.97;;;4.18;;
39842;SDS011;25514;46.764;15.406;2022-07-30T02:00:11;6.13;;;4.22;;
39842;SDS011;25514;46.764;15.406;2022-07-30T02:02:37;4.80;;;3.95;;
39842;SDS011;25514;46.764;15.406;2022-07-30T02:05:04;4.72;;;4.22;;
39842;SDS011;25514;46.764;15.406;2022-07-30T02:10:16;6.00;;;4.03;;
39842;SDS011;25514;46.764;15.406;2022-07-30T02:13:16;6.72;;;4.60;;
39842;SDS011;25514;46.764;15.406;2022-07-30T02:15:50;10.55;;;4.75;;
39842;SDS011;25514;46.764;15.406;2022-07-30T02:18:22;6.50;;;4.10;;
39842;SDS011;25514;46.764;15.406;2022-07-30T02:21:06;6.50;;;4.97;;
39842;SDS011;25514;46.764;15.406;2022-07-30T02:23:43;5.78;;;4.40;;
39842;SDS011;25514;46.764;15.406;2022-07-30T02:26:13;6.80;;;4.90;;
39842;SDS011;25514;46.764;15.406;2022-07-30T02:28:44;6.80;;;4.68;;
39842;SDS011;25514;46.764;15.406;2022-07-30T02:31:13;8.95;;;5.13;;
39842;SDS011;25514;46.764;15.406;2022-07-30T02:33:43;9.13;;;5.30;;
39842;SDS011;25514;46.764;15.406;2022-07-30T02:36:11;7.40;;;5.43;;
39842;SDS011;25514;46.764;15.406;2022-07-30T02:38:39;5.80;;;4.75;;
39842;SDS011;25514;46.764;15.406;2022-07-30T02:41:07;5.57;;;4.93;;
39842;SDS011;25514;46.764;15.406;2022-07-30T02:43:35;5.68;;;5.00;;
39842;SDS011;25514;46.764;15.406;2022-07-30T02:46:03;7.90;;;5.10;;
39842;SDS011;25514;46.764;15.406;2022-07-30T02:48:31;6.30;;;5.38;;
39842;SDS011;25514;46.764;15.406;2022-07-30T02:50:58;6.35;;;4.90;;
39842;SDS011;25514;46.764;15.406;2022-07-30T02:53:25;5.90;;;4.85;;
39842;SDS011;25514;46.764;15.406;2022-07-30T02:55:52;7.72;;;5.10;;
39842;SDS011;25514;46.764;15.406;2022-07-30T02:58:20;7.32;;;4.93;;
39842;SDS011;25514;46.764;15.406;2022-07-30T03:00:47;6.70;;;5.40;;
39842;SDS011;25514;46.764;15.406;2022-07-30T03:03:16;6.15;;;5.53;;
39842;SDS011;25514;46.764;15.406;2022-07-30T03:05:42;5.93;;;5.30;;
39842;SDS011;25514;46.764;15.406;2022-07-30T03:08:11;5.65;;;4.85;;
39842;SDS011;25514;46.764;15.406;2022-07-30T03:10:39;5.45;;;4.95;;
39842;SDS011;25514;46.764;15.406;2022-07-30T03:13:08;5.22;;;4.70;;
39842;SDS011;25514;46.764;15.406;2022-07-30T03:15:36;5.75;;;4.65;;
39842;SDS011;25514;46.764;15.406;2022-07-30T03:18:09;8.57;;;5.80;;
39842;SDS011;25514;46.764;15.406;2022-07-30T03:20:37;6.60;;;4.63;;
39842;SDS011;25514;46.764;15.406;2022-07-30T03:23:03;5.30;;;4.80;;
39842;SDS011;25514;46.764;15.406;2022-07-30T03:25:30;6.53;;;5.20;;
39842;SDS011;25514;46.764;15.406;2022-07-30T03:27:58;7.07;;;5.40;;
39842;SDS011;25514;46.764;15.406;2022-07-30T03:30:25;5.78;;;5.18;;
39842;SDS011;25514;46.764;15.406;2022-07-30T03:32:52;6.22;;;4.70;;
39842;SDS011;25514;46.764;15.406;2022-07-30T03:35:20;7.13;;;4.88;;
39842;SDS011;25514;46.764;15.406;2022-07-30T03:37:46;7.40;;;5.50;;
39842;SDS011;25514;46.764;15.406;2022-07-30T03:40:13;7.32;;;5.10;;
39842;SDS011;25514;46.764;15.406;2022-07-30T03:42:39;7.18;;;5.30;;
39842;SDS011;25514;46.764;15.406;2022-07-30T03:45:05;9.00;;;5.35;;
39842;SDS011;25514;46.764;15.406;2022-07-30T03:47:33;5.82;;;5.30;;
39842;SDS011;25514;46.764;15.406;2022-07-30T03:50:02;6.47;;;5.78;;
39842;SDS011;25514;46.764;15.406;2022-07-30T03:52:29;5.68;;;4.63;;
39842;SDS011;25514;46.764;15.406;2022-07-30T03:54:57;8.55;;;5.13;;
39842;SDS011;25514;46.764;15.406;2022-07-30T03:57:24;8.25;;;5.78;;
39842;SDS011;25514;46.764;15.406;2022-07-30T03:59:49;5.80;;;5.20;;
39842;SDS011;25514;46.764;15.406;2022-07-30T04:02:15;8.05;;;6.32;;
39842;SDS011;25514;46.764;15.406;2022-07-30T04:04:42;8.05;;;6.10;;
39842;SDS011;25514;46.764;15.406;2022-07-30T04:07:08;28.20;;;7.38;;
39842;SDS011;25514;46.764;15.406;2022-07-30T04:09:34;13.63;;;7.05;;
39842;SDS011;25514;46.764;15.406;2022-07-30T04:11:59;7.80;;;6.50;;
39842;SDS011;25514;46.764;15.406;2022-07-30T04:14:25;192.95;;;13.35;;
39842;SDS011;25514;46.764;15.406;2022-07-30T04:16:53;8.18;;;5.40;;
39842;SDS011;25514;46.764;15.406;2022-07-30T04:19:34;8.23;;;6.60;;
39842;SDS011;25514;46.764;15.406;2022-07-30T04:22:06;7.07;;;5.65;;
39842;SDS011;25514;46.764;15.406;2022-07-30T04:24:33;8.15;;;6.05;;
39842;SDS011;25514;46.764;15.406;2022-07-30T04:27:00;7.05;;;5.72;;
39842;SDS011;25514;46.764;15.406;2022-07-30T04:29:26;7.13;;;6.22;;
39842;SDS011;25514;46.764;15.406;2022-07-30T04:31:52;7.78;;;5.65;;
39842;SDS011;25514;46.764;15.406;2022-07-30T04:34:18;6.10;;;5.50;;
39842;SDS011;25514;46.764;15.406;2022-07-30T04:36:44;5.05;;;4.55;;
39842;SDS011;25514;46.764;15.406;2022-07-30T04:39:10;7.28;;;4.47;;
39842;SDS011;25514;46.764;15.406;2022-07-30T04:41:36;7.32;;;5.30;;
39842;SDS011;25514;46.764;15.406;2022-07-30T04:44:02;6.65;;;4.80;;
39842;SDS011;25514;46.764;15.406;2022-07-30T04:46:28;6.82;;;4.53;;
39842;SDS011;25514;46.764;15.406;2022-07-30T04:48:53;7.57;;;4.60;;
39842;SDS011;25514;46.764;15.406;2022-07-30T04:51:22;61.13;;;7.00;;
39842;SDS011;25514;46.764;15.406;2022-07-30T04:53:51;5.30;;;4.80;;
39842;SDS011;25514;46.764;15.406;2022-07-30T04:56:19;5.30;;;4.80;;
39842;SDS011;25514;46.764;15.406;2022-07-30T04:58:46;6.70;;;4.72;;
39842;SDS011;25514;46.764;15.406;2022-07-30T05:01:16;9.50;;;5.40;;
39842;SDS011;25514;46.764;15.406;2022-07-30T05:03:45;5.70;;;4.47;;
39842;SDS011;25514;46.764;15.406;2022-07-30T05:06:11;9.15;;;4.90;;
39842;SDS011;25514;46.764;15.406;2022-07-30T05:08:38;5.80;;;4.65;;
39842;SDS011;25514;46.764;15.406;2022-07-30T05:11:04;4.50;;;4.03;;
39842;SDS011;25514;46.764;15.406;2022-07-30T05:13:29;7.90;;;5.28;;
39842;SDS011;25514;46.764;15.406;2022-07-30T05:15:55;93.70;;;7.95;;
39842;SDS011;25514;46.764;15.406;2022-07-30T05:18:20;85.95;;;8.93;;
39842;SDS011;25514;46.764;15.406;2022-07-30T05:20:46;5.35;;;4.22;;
39842;SDS011;25514;46.764;15.406;2022-07-30T05:23:11;5.90;;;4.90;;
39842;SDS011;25514;46.764;15.406;2022-07-30T05:25:37;8.35;;;5.05;;
39842;SDS011;25514;46.764;15.406;2022-07-30T05:28:02;6.93;;;4.93;;
39842;SDS011;25514;46.764;15.406;2022-07-30T05:30:28;5.25;;;4.18;;
39842;SDS011;25514;46.764;15.406;2022-07-30T05:32:53;174.30;;;11.27;;
39842;SDS011;25514;46.764;15.406;2022-07-30T05:35:19;6.80;;;3.75;;
39842;SDS011;25514;46.764;15.406;2022-07-30T05:37:45;24.15;;;5.65;;
39842;SDS011;25514;46.764;15.406;2022-07-30T05:40:10;7.45;;;4.15;;
39842;SDS011;25514;46.764;15.406;2022-07-30T05:42:36;19.27;;;4.60;;
39842;SDS011;25514;46.764;15.406;2022-07-30T05:45:02;14.45;;;5.15;;
39842;SDS011;25514;46.764;15.406;2022-07-30T05:47:27;8.25;;;4.65;;
39842;SDS011;25514;46.764;15.406;2022-07-30T05:49:53;146.80;;;9.82;;
39842;SDS011;25514;46.764;15.406;2022-07-30T05:52:18;9.95;;;4.47;;
39842;SDS011;25514;46.764;15.406;2022-07-30T05:54:44;77.85;;;7.47;;
39842;SDS011;25514;46.764;15.406;2022-07-30T05:57:09;129.13;;;10.40;;
39842;SDS011;25514;46.764;15.406;2022-07-30T05:59:35;7.05;;;4.30;;
39842;SDS011;25514;46.764;15.406;2022-07-30T06:02:01;6.70;;;4.15;;
39842;SDS011;25514;46.764;15.406;2022-07-30T06:04:27;8.20;;;3.80;;
39842;SDS011;25514;46.764;15.406;2022-07-30T06:06:53;7.75;;;5.10;;
39842;SDS011;25514;46.764;15.406;2022-07-30T06:09:18;10.38;;;5.15;;
39842;SDS011;25514;46.764;15.406;2022-07-30T06:11:44;6.18;;;5.60;;
39842;SDS011;25514;46.764;15.406;2022-07-30T06:14:10;6.82;;;6.13;;
39842;SDS011;25514;46.764;15.406;2022-07-30T06:16:36;11.32;;;4.50;;
39842;SDS011;25514;46.764;15.406;2022-07-30T06:19:01;7.15;;;5.22;;
39842;SDS011;25514;46.764;15.406;2022-07-30T06:21:27;8.15;;;4.63;;
39842;SDS011;25514;46.764;15.406;2022-07-30T06:23:53;40.03;;;6.00;;
39842;SDS011;25514;46.764;15.406;2022-07-30T06:26:19;5.78;;;3.58;;
39842;SDS011;25514;46.764;15.406;2022-07-30T06:28:44;13.63;;;4.30;;
39842;SDS011;25514;46.764;15.406;2022-07-30T06:31:10;65.60;;;8.10;;
39842;SDS011;25514;46.764;15.406;2022-07-30T06:33:35;6.13;;;4.07;;
39842;SDS011;25514;46.764;15.406;2022-07-30T06:36:01;124.45;;;8.80;;
39842;SDS011;25514;46.764;15.406;2022-07-30T06:38:26;13.52;;;5.43;;
39842;SDS011;25514;46.764;15.406;2022-07-30T06:40:52;10.80;;;5.60;;
39842;SDS011;25514;46.764;15.406;2022-07-30T06:43:17;8.45;;;6.03;;
39842;SDS011;25514;46.764;15.406;2022-07-30T06:45:44;6.53;;;5.93;;
39842;SDS011;25514;46.764;15.406;2022-07-30T06:48:09;7.40;;;5.70;;
39842;SDS011;25514;46.764;15.406;2022-07-30T06:50:35;8.52;;;5.28;;
39842;SDS011;25514;46.764;15.406;2022-07-30T06:53:01;8.65;;;5.93;;
39842;SDS011;25514;46.764;15.406;2022-07-30T06:55:26;9.95;;;5.95;;
39842;SDS011;25514;46.764;15.406;2022-07-30T06:57:52;238.88;;;16.80;;
39842;SDS011;25514;46.764;15.406;2022-07-30T07:00:17;6.35;;;4.80;;
39842;SDS011;25514;46.764;15.406;2022-07-30T07:02:44;107.85;;;10.02;;
39842;SDS011;25514;46.764;15.406;2022-07-30T07:05:10;11.48;;;5.57;;
39842;SDS011;25514;46.764;15.406;2022-07-30T07:07:35;13.60;;;6.05;;
39842;SDS011;25514;46.764;15.406;2022-07-30T07:10:02;281.67;;;18.27;;
39842;SDS011;25514;46.764;15.406;2022-07-30T07:12:28;454.85;;;23.33;;
39842;SDS011;25514;46.764;15.406;2022-07-30T07:14:53;331.30;;;18.50;;
39842;SDS011;25514;46.764;15.406;2022-07-30T07:17:19;665.00;;;31.23;;
39842;SDS011;25514;46.764;15.406;2022-07-30T07:19:44;501.70;;;26.95;;
39842;SDS011;25514;46.764;15.406;2022-07-30T07:22:10;164.27;;;14.68;;
39842;SDS011;25514;46.764;15.406;2022-07-30T07:24:35;16.42;;;7.00;;
39842;SDS011;25514;46.764;15.406;2022-07-30T07:27:01;8.52;;;6.30;;
39842;SDS011;25514;46.764;15.406;2022-07-30T07:29:26;12.02;;;6.85;;
39842;SDS011;25514;46.764;15.406;2022-07-30T07:31:52;7.53;;;5.45;;
39842;SDS011;25514;46.764;15.406;2022-07-30T07:34:17;9.15;;;6.70;;
39842;SDS011;25514;46.764;15.406;2022-07-30T07:36:42;7.00;;;6.35;;
39842;SDS011;25514;46.764;15.406;2022-07-30T07:39:08;7.53;;;6.25;;
39842;SDS011;25514;46.764;15.406;2022-07-30T07:41:34;6.72;;;6.07;;
39842;SDS011;25514;46.764;15.406;2022-07-30T07:44:03;7.30;;;6.47;;
39842;SDS011;25514;46.764;15.406;2022-07-30T07:46:29;7.90;;;6.65;;
39842;SDS011;25514;46.764;15.406;2022-07-30T07:48:55;6.57;;;5.88;;
39842;SDS011;25514;46.764;15.406;2022-07-30T07:51:21;7.10;;;5.88;;
39842;SDS011;25514;46.764;15.406;2022-07-30T07:53:46;6.68;;;6.03;;
39842;SDS011;25514;46.764;15.406;2022-07-30T07:56:12;6.95;;;5.75;;
39842;SDS011;25514;46.764;15.406;2022-07-30T07:58:38;6.75;;;6.07;;
39842;SDS011;25514;46.764;15.406;2022-07-30T08:01:03;6.68;;;5.20;;
39842;SDS011;25514;46.764;15.406;2022-07-30T08:03:29;7.18;;;6.00;;
39842;SDS011;25514;46.764;15.406;2022-07-30T08:05:54;8.32;;;5.20;;
39842;SDS011;25514;46.764;15.406;2022-07-30T08:08:20;6.18;;;5.22;;
39842;SDS011;25514;46.764;15.406;2022-07-30T08:10:46;6.43;;;5.38;;
39842;SDS011;25514;46.764;15.406;2022-07-30T08:13:12;6.10;;;5.32;;
39842;SDS011;25514;46.764;15.406;2022-07-30T08:15:38;5.78;;;5.07;;
39842;SDS011;25514;46.764;15.406;2022-07-30T08:18:04;5.47;;;4.10;;
39842;SDS011;25514;46.764;15.406;2022-07-30T08:20:31;6.93;;;3.92;;
39842;SDS011;25514;46.764;15.406;2022-07-30T08:22:57;5.70;;;3.78;;
39842;SDS011;25514;46.764;15.406;2022-07-30T08:25:23;5.25;;;4.75;;
39842;SDS011;25514;46.764;15.406;2022-07-30T08:27:48;5.47;;;4.97;;
39842;SDS011;25514;46.764;15.406;2022-07-30T08:30:14;6.05;;;4.63;;
39842;SDS011;25514;46.764;15.406;2022-07-30T08:32:39;5.78;;;5.03;;
39842;SDS011;25514;46.764;15.406;2022-07-30T08:35:05;5.82;;;4.60;;
39842;SDS011;25514;46.764;15.406;2022-07-30T08:37:31;7.85;;;4.78;;
39842;SDS011;25514;46.764;15.406;2022-07-30T08:39:57;5.97;;;4.72;;
39842;SDS011;25514;46.764;15.406;2022-07-30T08:42:22;6.75;;;5.05;;
39842;SDS011;25514;46.764;15.406;2022-07-30T08:44:48;5.85;;;4.47;;
39842;SDS011;25514;46.764;15.406;2022-07-30T08:47:17;6.65;;;4.75;;
39842;SDS011;25514;46.764;15.406;2022-07-30T08:49:46;3.40;;;3.10;;
39842;SDS011;25514;46.764;15.406;2022-07-30T08:52:12;4.20;;;3.80;;
39842;SDS011;25514;46.764;15.406;2022-07-30T08:54:39;6.00;;;3.63;;
39842;SDS011;25514;46.764;15.406;2022-07-30T08:57:05;4.00;;;3.30;;
39842;SDS011;25514;46.764;15.406;2022-07-30T08:59:31;5.35;;;3.45;;
39842;SDS011;25514;46.764;15.406;2022-07-30T09:01:58;3.85;;;3.55;;
39842;SDS011;25514;46.764;15.406;2022-07-30T09:04:23;3.03;;;2.70;;
39842;SDS011;25514;46.764;15.406;2022-07-30T09:06:49;2.78;;;2.38;;
39842;SDS011;25514;46.764;15.406;2022-07-30T09:09:14;4.43;;;3.08;;
39842;SDS011;25514;46.764;15.406;2022-07-30T09:11:40;3.20;;;2.72;;
39842;SDS011;25514;46.764;15.406;2022-07-30T09:14:06;3.22;;;2.78;;
39842;SDS011;25514;46.764;15.406;2022-07-30T09:16:34;6.40;;;3.30;;
39842;SDS011;25514;46.764;15.406;2022-07-30T09:19:10;2.67;;;2.42;;
39842;SDS011;25514;46.764;15.406;2022-07-30T09:21:39;3.13;;;2.35;;
39842;SDS011;25514;46.764;15.406;2022-07-30T09:24:10;2.55;;;2.35;;
39842;SDS011;25514;46.764;15.406;2022-07-30T09:29:25;6.50;;;3.50;;
39842;SDS011;25514;46.764;15.406;2022-07-30T09:36:49;3.70;;;2.15;;
39842;SDS011;25514;46.764;15.406;2022-07-30T09:39:14;2.15;;;1.80;;
39842;SDS011;25514;46.764;15.406;2022-07-30T09:42:03;2.92;;;1.95;;
39842;SDS011;25514;46.764;15.406;2022-07-30T09:44:40;2.28;;;1.90;;
39842;SDS011;25514;46.764;15.406;2022-07-30T09:47:06;4.43;;;1.92;;
39842;SDS011;25514;46.764;15.406;2022-07-30T09:49:32;2.03;;;1.83;;
39842;SDS011;25514;46.764;15.406;2022-07-30T09:51:58;3.80;;;1.98;;
39842;SDS011;25514;46.764;15.406;2022-07-30T09:54:24;4.40;;;2.08;;
39842;SDS011;25514;46.764;15.406;2022-07-30T09:57:09;3.22;;;1.30;;
39842;SDS011;25514;46.764;15.406;2022-07-30T09:59:35;1.77;;;1.40;;
39842;SDS011;25514;46.764;15.406;2022-07-30T10:02:00;8.43;;;3.47;;
39842;SDS011;25514;46.764;15.406;2022-07-30T10:04:27;3.35;;;1.52;;
39842;SDS011;25514;46.764;15.406;2022-07-30T10:06:54;2.30;;;1.52;;
39842;SDS011;25514;46.764;15.406;2022-07-30T10:09:27;2.53;;;1.70;;
39842;SDS011;25514;46.764;15.406;2022-07-30T10:11:55;2.88;;;1.00;;
39842;SDS011;25514;46.764;15.406;2022-07-30T10:14:23;26.15;;;8.52;;
39842;SDS011;25514;46.764;15.406;2022-07-30T10:16:52;35.40;;;9.30;;
39842;SDS011;25514;46.764;15.406;2022-07-30T10:19:18;40.85;;;11.60;;
39842;SDS011;25514;46.764;15.406;2022-07-30T10:21:44;3.90;;;1.75;;
39842;SDS011;25514;46.764;15.406;2022-07-30T10:24:09;2.15;;;1.20;;
39842;SDS011;25514;46.764;15.406;2022-07-30T10:26:36;3.10;;;1.02;;
39842;SDS011;25514;46.764;15.406;2022-07-30T10:29:02;2.05;;;1.05;;
39842;SDS011;25514;46.764;15.406;2022-07-30T10:31:32;1.10;;;0.82;;
39842;SDS011;25514;46.764;15.406;2022-07-30T10:33:57;1.38;;;1.00;;
39842;SDS011;25514;46.764;15.406;2022-07-30T10:36:23;5.93;;;1.42;;
39842;SDS011;25514;46.764;15.406;2022-07-30T10:38:49;3.13;;;1.50;;
39842;SDS011;25514;46.764;15.406;2022-07-30T10:47:08;3.13;;;1.27;;
39842;SDS011;25514;46.764;15.406;2022-07-30T10:49:38;2.15;;;1.02;;
39842;SDS011;25514;46.764;15.406;2022-07-30T10:52:04;2.80;;;1.50;;
39842;SDS011;25514;46.764;15.406;2022-07-30T11:02:25;4.10;;;1.60;;
39842;SDS011;25514;46.764;15.406;2022-07-30T11:07:42;1.35;;;0.80;;
39842;SDS011;25514;46.764;15.406;2022-07-30T11:10:32;2.72;;;0.70;;
39842;SDS011;25514;46.764;15.406;2022-07-30T11:12:58;0.85;;;0.80;;
39842;SDS011;25514;46.764;15.406;2022-07-30T11:15:28;1.50;;;0.90;;
39842;SDS011;25514;46.764;15.406;2022-07-30T11:18:21;1.33;;;1.10;;
39842;SDS011;25514;46.764;15.406;2022-07-30T11:23:38;1.00;;;0.90;;
39842;SDS011;25514;46.764;15.406;2022-07-30T11:26:04;2.25;;;1.00;;
39842;SDS011;25514;46.764;15.406;2022-07-30T11:28:44;1.88;;;1.00;;
39842;SDS011;25514;46.764;15.406;2022-07-30T11:42:29;1.38;;;1.00;;
39842;SDS011;25514;46.764;15.406;2022-07-30T11:47:43;1.90;;;0.90;;
39842;SDS011;25514;46.764;15.406;2022-07-30T11:53:09;1.17;;;0.93;;
39842;SDS011;25514;46.764;15.406;2022-07-30T11:58:07;1.85;;;0.80;;
39842;SDS011;25514;46.764;15.406;2022-07-30T12:00:48;2.25;;;0.93;;
39842;SDS011;25514;46.764;15.406;2022-07-30T12:03:19;1.23;;;1.13;;
39842;SDS011;25514;46.764;15.406;2022-07-30T12:05:45;1.42;;;1.02;;
39842;SDS011;25514;46.764;15.406;2022-07-30T12:08:12;2.42;;;0.88;;
39842;SDS011;25514;46.764;15.406;2022-07-30T12:10:39;1.58;;;0.90;;
39842;SDS011;25514;46.764;15.406;2022-07-30T12:13:15;1.15;;;1.00;;
39842;SDS011;25514;46.764;15.406;2022-07-30T12:15:45;2.35;;;1.13;;
39842;SDS011;25514;46.764;15.406;2022-07-30T12:18:12;1.25;;;0.90;;
39842;SDS011;25514;46.764;15.406;2022-07-30T12:20:39;3.72;;;1.02;;
39842;SDS011;25514;46.764;15.406;2022-07-30T12:23:11;1.60;;;0.90;;
39842;SDS011;25514;46.764;15.406;2022-07-30T12:25:39;3.22;;;1.30;;
39842;SDS011;25514;46.764;15.406;2022-07-30T12:28:05;3.08;;;1.00;;
39842;SDS011;25514;46.764;15.406;2022-07-30T12:30:31;1.30;;;1.17;;
39842;SDS011;25514;46.764;15.406;2022-07-30T12:32:56;1.88;;;1.23;;
39842;SDS011;25514;46.764;15.406;2022-07-30T12:35:22;1.60;;;1.20;;
39842;SDS011;25514;46.764;15.406;2022-07-30T12:38:03;1.10;;;1.00;;
39842;SDS011;25514;46.764;15.406;2022-07-30T12:40:29;2.72;;;1.30;;
39842;SDS011;25514;46.764;15.406;2022-07-30T12:42:55;2.97;;;1.20;;
39842;SDS011;25514;46.764;15.406;2022-07-30T12:45:27;1.38;;;1.20;;
39842;SDS011;25514;46.764;15.406;2022-07-30T12:47:54;2.58;;;1.02;;
39842;SDS011;25514;46.764;15.406;2022-07-30T12:50:20;1.25;;;1.00;;
39842;SDS011;25514;46.764;15.406;2022-07-30T12:52:49;3.03;;;0.98;;
39842;SDS011;25514;46.764;15.406;2022-07-30T12:55:16;1.10;;;1.00;;
39842;SDS011;25514;46.764;15.406;2022-07-30T12:58:01;1.80;;;0.98;;
39842;SDS011;25514;46.764;15.406;2022-07-30T13:00:31;1.20;;;1.10;;
39842;SDS011;25514;46.764;15.406;2022-07-30T13:03:21;1.08;;;0.98;;
39842;SDS011;25514;46.764;15.406;2022-07-30T13:05:52;1.80;;;1.10;;
39842;SDS011;25514;46.764;15.406;2022-07-30T13:08:19;1.70;;;1.40;;
39842;SDS011;25514;46.764;15.406;2022-07-30T13:10:58;2.15;;;1.20;;
39842;SDS011;25514;46.764;15.406;2022-07-30T13:13:27;1.42;;;0.93;;
39842;SDS011;25514;46.764;15.406;2022-07-30T13:15:59;1.30;;;1.02;;
39842;SDS011;25514;46.764;15.406;2022-07-30T13:18:30;1.10;;;1.00;;
39842;SDS011;25514;46.764;15.406;2022-07-30T13:20:57;1.20;;;1.10;;
39842;SDS011;25514;46.764;15.406;2022-07-30T13:23:24;2.08;;;1.00;;
39842;SDS011;25514;46.764;15.406;2022-07-30T13:25:50;1.88;;;1.33;;
39842;SDS011;25514;46.764;15.406;2022-07-30T13:28:16;2.28;;;1.50;;
39842;SDS011;25514;46.764;15.406;2022-07-30T13:30:42;2.10;;;1.13;;
39842;SDS011;25514;46.764;15.406;2022-07-30T13:33:08;1.73;;;1.25;;
39842;SDS011;25514;46.764;15.406;2022-07-30T13:35:33;1.45;;;1.20;;
39842;SDS011;25514;46.764;15.406;2022-07-30T13:37:59;1.70;;;1.17;;
39842;SDS011;25514;46.764;15.406;2022-07-30T13:40:28;1.17;;;1.05;;
39842;SDS011;25514;46.764;15.406;2022-07-30T13:42:56;1.30;;;1.10;;
39842;SDS011;25514;46.764;15.406;2022-07-30T13:45:22;1.38;;;1.02;;
39842;SDS011;25514;46.764;15.406;2022-07-30T13:47:47;1.50;;;1.00;;
39842;SDS011;25514;46.764;15.406;2022-07-30T13:50:13;1.67;;;1.25;;
39842;SDS011;25514;46.764;15.406;2022-07-30T13:52:38;2.08;;;1.55;;
39842;SDS011;25514;46.764;15.406;2022-07-30T13:55:04;2.90;;;1.65;;
39842;SDS011;25514;46.764;15.406;2022-07-30T13:57:30;1.95;;;1.55;;
39842;SDS011;25514;46.764;15.406;2022-07-30T13:59:55;1.42;;;1.33;;
39842;SDS011;25514;46.764;15.406;2022-07-30T14:02:21;3.22;;;1.58;;
39842;SDS011;25514;46.764;15.406;2022-07-30T14:04:46;1.52;;;1.42;;
39842;SDS011;25514;46.764;15.406;2022-07-30T14:07:12;2.45;;;1.55;;
39842;SDS011;25514;46.764;15.406;2022-07-30T14:09:37;2.00;;;1.55;;
39842;SDS011;25514;46.764;15.406;2022-07-30T14:12:03;3.25;;;1.80;;
39842;SDS011;25514;46.764;15.406;2022-07-30T14:14:29;2.90;;;1.52;;
39842;SDS011;25514;46.764;15.406;2022-07-30T14:16:55;3.30;;;1.60;;
39842;SDS011;25514;46.764;15.406;2022-07-30T14:19:20;2.60;;;1.55;;
39842;SDS011;25514;46.764;15.406;2022-07-30T14:21:46;2.05;;;1.60;;
39842;SDS011;25514;46.764;15.406;2022-07-30T14:24:11;3.17;;;1.88;;
39842;SDS011;25514;46.764;15.406;2022-07-30T14:26:42;3.35;;;1.85;;
39842;SDS011;25514;46.764;15.406;2022-07-30T14:29:08;4.28;;;2.40;;
39842;SDS011;25514;46.764;15.406;2022-07-30T14:31:34;3.95;;;2.10;;
39842;SDS011;25514;46.764;15.406;2022-07-30T14:34:01;4.65;;;2.40;;
39842;SDS011;25514;46.764;15.406;2022-07-30T14:36:27;2.20;;;2.00;;
39842;SDS011;25514;46.764;15.406;2022-07-30T14:38:54;3.30;;;1.90;;
39842;SDS011;25514;46.764;15.406;2022-07-30T14:41:21;3.47;;;2.45;;
39842;SDS011;25514;46.764;15.406;2022-07-30T14:43:47;2.92;;;2.08;;
39842;SDS011;25514;46.764;15.406;2022-07-30T14:46:12;3.72;;;2.25;;
39842;SDS011;25514;46.764;15.406;2022-07-30T14:48:38;2.67;;;1.90;;
39842;SDS011;25514;46.764;15.406;2022-07-30T14:51:03;2.78;;;2.05;;
39842;SDS011;25514;46.764;15.406;2022-07-30T14:53:30;2.78;;;2.13;;
39842;SDS011;25514;46.764;15.406;2022-07-30T14:55:55;2.08;;;1.88;;
39842;SDS011;25514;46.764;15.406;2022-07-30T14:58:21;3.05;;;1.88;;
39842;SDS011;25514;46.764;15.406;2022-07-30T15:00:47;3.15;;;2.10;;
39842;SDS011;25514;46.764;15.406;2022-07-30T15:03:13;6.00;;;2.65;;
39842;SDS011;25514;46.764;15.406;2022-07-30T15:05:38;4.05;;;2.10;;
39842;SDS011;25514;46.764;15.406;2022-07-30T15:08:04;3.20;;;2.47;;
39842;SDS011;25514;46.764;15.406;2022-07-30T15:10:29;3.78;;;2.10;;
39842;SDS011;25514;46.764;15.406;2022-07-30T15:12:55;4.60;;;2.20;;
39842;SDS011;25514;46.764;15.406;2022-07-30T15:15:20;3.80;;;1.90;;
39842;SDS011;25514;46.764;15.406;2022-07-30T15:17:46;2.72;;;2.20;;
39842;SDS011;25514;46.764;15.406;2022-07-30T15:20:11;2.35;;;2.15;;
39842;SDS011;25514;46.764;15.406;2022-07-30T15:22:37;3.72;;;2.25;;
39842;SDS011;25514;46.764;15.406;2022-07-30T15:25:04;2.83;;;2.38;;
39842;SDS011;25514;46.764;15.406;2022-07-30T15:27:30;2.67;;;2.30;;
39842;SDS011;25514;46.764;15.406;2022-07-30T15:29:55;3.85;;;2.45;;
39842;SDS011;25514;46.764;15.406;2022-07-30T15:32:20;3.53;;;2.30;;